Главная страница
METAR-TAF:

METAR-TAF

Аэропорты :

Нампула, Мозамбик

широта: 15-06S, долгота: 039-17E, высота над уровнем моря: 438 м

Текущие метеонаблюдения

Эта сводка был подготовлена 30 минут назад, в 18:00 UTC
Ветер 6 Узел от юго-восточный
Температура 27°C
Влажность 66%
Давление 1016 hPa
Видимость 10 км и более
Отдельные облака на высоте 2000 фута

METAR: FQNP 151800Z 13006KT 9999 SCT020 27/20 Q1016

Время: 20:30 (18:30 UTC)

Прогноз

Эта сводка был подготовлена 2 часа и 30 минут назад, в 16:00 UTC
Прогноз действительный с 15-го 18 UTC до 16-го 24 UTC
Ветер 12 Узел от юго-юго-восточный
Видимость 10 км и более
Рассеянная облачность на высоте 2000 фута
изменения
С 16-го 09 UTC до 16-го 11 UTC
Ветер 8 Узел от восточный
изменения
С 16-го 13 UTC до 16-го 15 UTC
Ветер 10 Узел от юго-юго-восточный

TAF: FQNP 151600Z 1518/1624 16012KT 9999 BKN020 BECMG 1609/1611 09008KT BECMG 1613/1615 15010KT TX33/1613Z TN23/1603Z

Метеонаблюдения и прогнозы для более 4000 аэропортов (сводки METAR и TAF).

Имеющиеся станции представлены на карте желтыми и красными точками.

Чтобы увидеть название станции, наведите на нее мышь.

Затем щелкните, чтобы увидеть метеонаблюдения и метеопрогнозы.

Управление картой: чтобы увеличить масштаб, щелкните зеленые кнопки с черным крестиком; чтобы уменьшить масштаб, щелкните зеленую кнопку с тире; для просмотра соседних карт щелкайте зеленые стрелки.


METAR-TAF: